Wawasan Ruby — 3EVU7 — position and weather

sailwx.info

Track history (hours):
 
Tides and Currents Weather Stations Pressure Air Temp Water Temp Dewpoint Dewpoint Depression Visibility Wind Speed Wind Dir Waves Ship Positions

Wawasan Ruby

Last reported at 2014-Oct-08 21:32 UTC. Time now 2014-Oct-26 07:52 UTC.
Position N 31°22' E 032°19'.
Warning: this ship's position is 17 days out of date.

Length 146 m; draft 9.4 m.

Type: Tanker. MMSI: 355619000.

Date/timePositionNaut miles runAvg speedWind from/ knotsBaromVisibWave heightAir tempDewpointWater temp
2014-Oct-08 21:32N 31°22' E 032°19'12 1.3
2014-Oct-08 12:09N 31°32' E 032°12'4811.9
2014-Oct-08 08:06N 32°09' E 031°37'611.8
2014-Oct-08 07:33N 32°15' E 031°33'14011.7
2014-Oct-07 19:33N 32°44' E 028°50'1212.0
2014-Oct-07 18:33N 32°45' E 028°36'5512.2
2014-Oct-07 14:05N 32°53' E 027°32'  
2014-Oct-01 20:29N 35°60' W 005°15'1212.8
2014-Oct-01 19:33N 35°57' W 005°29'16811.2
2014-Oct-01 04:34N 36°24' W 008°54'2812.2
2014-Oct-01 02:14N 36°36' W 009°26'912.7
2014-Oct-01 01:33N 36°42' W 009°34'1312.6
2014-Oct-01 00:32N 36°54' W 009°40'1313.1
2014-Sep-30 23:33N 37°06' W 009°44'1313.3
2014-Sep-30 22:33N 37°19' W 009°48'1313.3
2014-Sep-30 21:33N 37°32' W 009°51'1313.2
2014-Sep-30 20:33N 37°45' W 009°56'1313.1
2014-Sep-30 19:33N 37°58' W 009°60'1313.1
2014-Sep-30 18:33N 38°10' W 010°03'1512.7
2014-Sep-30 17:24N 38°25' W 010°08'1213.1
2014-Sep-30 16:30N 38°36' W 010°11'1313.9
2014-Sep-30 15:33N 38°49' W 010°12'  
Track history (hours):
 
Tides and Currents Weather Stations Pressure Air Temp Water Temp Dewpoint Dewpoint Depression Visibility Wind Speed Wind Dir Waves Ship Positions

Wawasan Ruby

Last reported at 2014-Oct-08 21:32 UTC. Time now 2014-Oct-26 07:52 UTC.
Position N 31°22' E 032°19'.
Warning: this ship's position is 17 days out of date.

Length 146 m; draft 9.4 m.

Type: Tanker. MMSI: 355619000.

Date/timePositionNaut miles runAvg speedWind from/ knotsBaromVisibWave heightAir tempDewpointWater temp
2014-Oct-08 21:32N 31°22' E 032°19'12 1.3
2014-Oct-08 12:09N 31°32' E 032°12'4811.9
2014-Oct-08 08:06N 32°09' E 031°37'611.8
2014-Oct-08 07:33N 32°15' E 031°33'14011.7
2014-Oct-07 19:33N 32°44' E 028°50'1212.0
2014-Oct-07 18:33N 32°45' E 028°36'5512.2
2014-Oct-07 14:05N 32°53' E 027°32'  
2014-Oct-01 20:29N 35°60' W 005°15'1212.8
2014-Oct-01 19:33N 35°57' W 005°29'16811.2
2014-Oct-01 04:34N 36°24' W 008°54'2812.2
2014-Oct-01 02:14N 36°36' W 009°26'912.7
2014-Oct-01 01:33N 36°42' W 009°34'1312.6
2014-Oct-01 00:32N 36°54' W 009°40'1313.1
2014-Sep-30 23:33N 37°06' W 009°44'1313.3
2014-Sep-30 22:33N 37°19' W 009°48'1313.3
2014-Sep-30 21:33N 37°32' W 009°51'1313.2
2014-Sep-30 20:33N 37°45' W 009°56'1313.1
2014-Sep-30 19:33N 37°58' W 009°60'1313.1
2014-Sep-30 18:33N 38°10' W 010°03'1512.7
2014-Sep-30 17:24N 38°25' W 010°08'1213.1
2014-Sep-30 16:30N 38°36' W 010°11'1313.9
2014-Sep-30 15:33N 38°49' W 010°12'  

Dump ship's entire track history